New Orleans Nas Jrb/Alvin Callender Field/ Airport
KNBG : now visible

Airfield :











YOU CAN JOIN US ON...

 
LOGIN :

Register | Disclaimer

   EN    FR    IT 

 









Legend :    VFR   Marginal VFR   IFR   Intensive IFR   Very Intensive IFR
Visi :
Ceiling :
>= 8 km
>= 3000ft
5 to 8 km
1000 to 3000 ft
1500m to 5 km
500 to 1000 ft
800 to 1500m
200 to 500 ft
< 800m
< 200 ft
Symbols :   Thunderstorms  Fog  Heavy snow  Heavy precipitations  Wind > 20 kt







- Airport Elevation : 2 ft


KNBG - New Orleans Nas Jrb/Alvin Callender Field/

CURRENT METAR :
  • 200955Z AUTO 15006KT 10SM CLR 26/24 A3003 RMK AO2 SLP169 T02610239 $

EXPIRED METARs :
  • 200855Z AUTO 12005KT 10SM FEW095 26/24 A3002 RMK AO2 SLP165 T02560239 58001 $
  • 200755Z AUTO 14005KT 10SM CLR 26/25 A3002 RMK AO2 SLP164 T02610250 $

TAF TAF KNBG
Valid from the 20 at 07:00 until the 21 at 07:00 UTC


2007/2107 11006KT 6000 BR VCSH FEW020 SCT100 BKN250 QNH2997INS
TEMPO 2007/2010 3200 BR SCT030 BKN060
BECMG 2013/2015 10013G22KT 9999 VCTS SCT020CB BKN035 BKN100 OVC250 QNH3000INS
TEMPO 2013/2019 VRB25G35KT 1600 TSRA BR BKN015CB OVC030
BECMG 2023/2101 10008G15KT 9999 VCTS SCT030CB BKN070 BKN250 QNH3003INS
TEMPO 2101/2107 VRB20G30KT 3200 -TSRA BKN030CB OVC080 AUTOMATED SENSOR METWATCH 2007 TIL 2010 T26/2010Z T33/2019Z FN00198
No reported NOTAMs for that airfield.



MET'MAP, your aeronautical weather chart ! - Copyright ORBIFLY December 2007 - Disclaimer

ORBIFLY MET'MAP TEAM :

Programming & Development : Alexandra Zaïnal
Concept & Development : Baudouin d'Aumeries
Co-Development & Prog : Marc-Olivier Méhu
Technical & hardware support : Manuel Goepfert

Contact : metmap@orbifly.com




SOURCES & CREDITS :

   NOAA       Earth
Advisory